sensor_id;sensor_type;location;lat;lon;timestamp;P1;durP1;ratioP1;P2;durP2;ratioP2
24867;SDS011;12941;48.698;9.310;2023-09-30T00:00:52;9.3;;;4.7;;
24867;SDS011;12941;48.698;9.310;2023-09-30T00:01:52;9.3;;;4.7;;
24867;SDS011;12941;48.698;9.310;2023-09-30T00:02:52;9.3;;;4.7;;
24867;SDS011;12941;48.698;9.310;2023-09-30T00:03:58;9.7;;;4.9;;
24867;SDS011;12941;48.698;9.310;2023-09-30T00:05:02;9.7;;;4.9;;
24867;SDS011;12941;48.698;9.310;2023-09-30T00:06:07;9.7;;;4.9;;
24867;SDS011;12941;48.698;9.310;2023-09-30T00:07:08;9.7;;;4.9;;
24867;SDS011;12941;48.698;9.310;2023-09-30T00:08:12;9.7;;;4.9;;
24867;SDS011;12941;48.698;9.310;2023-09-30T00:09:18;10.4;;;4.8;;
24867;SDS011;12941;48.698;9.310;2023-09-30T00:10:22;10.4;;;4.8;;
24867;SDS011;12941;48.698;9.310;2023-09-30T00:11:22;10.4;;;4.8;;
24867;SDS011;12941;48.698;9.310;2023-09-30T00:12:27;10.4;;;4.8;;
24867;SDS011;12941;48.698;9.310;2023-09-30T00:13:27;9.7;;;4.6;;
24867;SDS011;12941;48.698;9.310;2023-09-30T00:14:27;9.7;;;4.6;;
24867;SDS011;12941;48.698;9.310;2023-09-30T00:15:32;9.7;;;4.6;;
24867;SDS011;12941;48.698;9.310;2023-09-30T00:16:37;9.7;;;4.6;;
24867;SDS011;12941;48.698;9.310;2023-09-30T00:17:37;9.7;;;4.6;;
24867;SDS011;12941;48.698;9.310;2023-09-30T00:18:37;9.4;;;4.9;;
24867;SDS011;12941;48.698;9.310;2023-09-30T00:19:37;9.4;;;4.9;;
24867;SDS011;12941;48.698;9.310;2023-09-30T00:20:38;9.4;;;4.9;;
24867;SDS011;12941;48.698;9.310;2023-09-30T00:21:42;9.4;;;4.9;;
24867;SDS011;12941;48.698;9.310;2023-09-30T00:22:43;9.4;;;4.9;;
24867;SDS011;12941;48.698;9.310;2023-09-30T00:23:48;9.5;;;4.9;;
24867;SDS011;12941;48.698;9.310;2023-09-30T00:24:48;9.5;;;4.9;;
24867;SDS011;12941;48.698;9.310;2023-09-30T00:25:52;9.5;;;4.9;;
24867;SDS011;12941;48.698;9.310;2023-09-30T00:26:52;9.5;;;4.9;;
24867;SDS011;12941;48.698;9.310;2023-09-30T00:27:53;9.5;;;4.9;;
24867;SDS011;12941;48.698;9.310;2023-09-30T00:28:58;9.6;;;4.3;;
24867;SDS011;12941;48.698;9.310;2023-09-30T00:30:03;9.6;;;4.3;;
24867;SDS011;12941;48.698;9.310;2023-09-30T00:31:06;9.6;;;4.3;;
24867;SDS011;12941;48.698;9.310;2023-09-30T00:32:08;9.6;;;4.3;;
24867;SDS011;12941;48.698;9.310;2023-09-30T00:33:08;9.6;;;4.3;;
24867;SDS011;12941;48.698;9.310;2023-09-30T00:34:13;9;;;4.7;;
24867;SDS011;12941;48.698;9.310;2023-09-30T00:35:13;9;;;4.7;;
24867;SDS011;12941;48.698;9.310;2023-09-30T00:36:13;9;;;4.7;;
24867;SDS011;12941;48.698;9.310;2023-09-30T00:37:18;9;;;4.7;;
24867;SDS011;12941;48.698;9.310;2023-09-30T00:38:18;9.6;;;4.7;;
24867;SDS011;12941;48.698;9.310;2023-09-30T00:39:23;9.6;;;4.6;;
24867;SDS011;12941;48.698;9.310;2023-09-30T00:40:22;9.6;;;4.6;;
24867;SDS011;12941;48.698;9.310;2023-09-30T00:41:23;9.6;;;4.6;;
24867;SDS011;12941;48.698;9.310;2023-09-30T00:42:28;9.6;;;4.6;;
24867;SDS011;12941;48.698;9.310;2023-09-30T00:43:28;9.7;;;4.4;;
24867;SDS011;12941;48.698;9.310;2023-09-30T00:44:33;9.7;;;4.4;;
24867;SDS011;12941;48.698;9.310;2023-09-30T00:45:38;9.7;;;4.4;;
24867;SDS011;12941;48.698;9.310;2023-09-30T00:46:43;9.7;;;4.4;;
24867;SDS011;12941;48.698;9.310;2023-09-30T00:47:43;9.7;;;4.4;;
24867;SDS011;12941;48.698;9.310;2023-09-30T00:48:43;10;;;4.7;;
24867;SDS011;12941;48.698;9.310;2023-09-30T00:49:48;10;;;4.7;;
24867;SDS011;12941;48.698;9.310;2023-09-30T00:50:53;10;;;4.7;;
24867;SDS011;12941;48.698;9.310;2023-09-30T00:51:58;10;;;4.7;;
24867;SDS011;12941;48.698;9.310;2023-09-30T00:52:58;10;;;4.7;;
24867;SDS011;12941;48.698;9.310;2023-09-30T00:53:59;9.5;;;4.4;;
24867;SDS011;12941;48.698;9.310;2023-09-30T00:55:03;9.5;;;4.4;;
24867;SDS011;12941;48.698;9.310;2023-09-30T00:56:03;9.5;;;4.4;;
24867;SDS011;12941;48.698;9.310;2023-09-30T00:57:03;9.5;;;4.4;;
24867;SDS011;12941;48.698;9.310;2023-09-30T00:58:08;9.5;;;4.4;;
24867;SDS011;12941;48.698;9.310;2023-09-30T00:59:08;8.8;;;4.3;;
24867;SDS011;12941;48.698;9.310;2023-09-30T01:00:08;8.8;;;4.3;;
24867;SDS011;12941;48.698;9.310;2023-09-30T01:01:13;8.8;;;4.3;;
24867;SDS011;12941;48.698;9.310;2023-09-30T01:02:13;8.8;;;4.3;;
24867;SDS011;12941;48.698;9.310;2023-09-30T01:03:13;8.8;;;4.3;;
24867;SDS011;12941;48.698;9.310;2023-09-30T01:04:18;10;;;4.7;;
24867;SDS011;12941;48.698;9.310;2023-09-30T01:05:18;10;;;4.7;;
24867;SDS011;12941;48.698;9.310;2023-09-30T01:06:23;10;;;4.7;;
24867;SDS011;12941;48.698;9.310;2023-09-30T01:07:23;10;;;4.7;;
24867;SDS011;12941;48.698;9.310;2023-09-30T01:08:28;10.3;;;4.5;;
24867;SDS011;12941;48.698;9.310;2023-09-30T01:09:28;10.3;;;4.5;;
24867;SDS011;12941;48.698;9.310;2023-09-30T01:10:33;10.3;;;4.5;;
24867;SDS011;12941;48.698;9.310;2023-09-30T01:11:33;10.3;;;4.5;;
24867;SDS011;12941;48.698;9.310;2023-09-30T01:12:33;10.3;;;4.5;;
24867;SDS011;12941;48.698;9.310;2023-09-30T01:13:38;9.1;;;4.4;;
24867;SDS011;12941;48.698;9.310;2023-09-30T01:14:43;9.1;;;4.4;;
24867;SDS011;12941;48.698;9.310;2023-09-30T01:15:43;9.1;;;4.4;;
24867;SDS011;12941;48.698;9.310;2023-09-30T01:16:48;9.1;;;4.4;;
24867;SDS011;12941;48.698;9.310;2023-09-30T01:17:48;9.1;;;4.4;;
24867;SDS011;12941;48.698;9.310;2023-09-30T01:18:53;9.2;;;4.1;;
24867;SDS011;12941;48.698;9.310;2023-09-30T01:19:53;9.2;;;4.1;;
24867;SDS011;12941;48.698;9.310;2023-09-30T01:20:53;9.2;;;4.1;;
24867;SDS011;12941;48.698;9.310;2023-09-30T01:21:58;9.2;;;4.1;;
24867;SDS011;12941;48.698;9.310;2023-09-30T01:22:58;9.2;;;4.1;;
24867;SDS011;12941;48.698;9.310;2023-09-30T01:23:58;9;;;4.5;;
24867;SDS011;12941;48.698;9.310;2023-09-30T01:24:58;9;;;4.5;;
24867;SDS011;12941;48.698;9.310;2023-09-30T01:26:00;9;;;4.5;;
24867;SDS011;12941;48.698;9.310;2023-09-30T01:27:03;9;;;4.5;;
24867;SDS011;12941;48.698;9.310;2023-09-30T01:28:07;9;;;4.5;;
24867;SDS011;12941;48.698;9.310;2023-09-30T01:29:08;7.2;;;3.9;;
24867;SDS011;12941;48.698;9.310;2023-09-30T01:30:08;7.2;;;3.9;;
24867;SDS011;12941;48.698;9.310;2023-09-30T01:31:13;7.2;;;3.9;;
24867;SDS011;12941;48.698;9.310;2023-09-30T01:32:13;7.2;;;3.9;;
24867;SDS011;12941;48.698;9.310;2023-09-30T01:33:13;7.2;;;3.9;;
24867;SDS011;12941;48.698;9.310;2023-09-30T01:34:18;8.1;;;4;;
24867;SDS011;12941;48.698;9.310;2023-09-30T01:35:23;8.1;;;4;;
24867;SDS011;12941;48.698;9.310;2023-09-30T01:36:23;8.1;;;4;;
24867;SDS011;12941;48.698;9.310;2023-09-30T01:37:28;8.1;;;4;;
24867;SDS011;12941;48.698;9.310;2023-09-30T01:38:28;9;;;4.3;;
24867;SDS011;12941;48.698;9.310;2023-09-30T01:39:33;9;;;4.3;;
24867;SDS011;12941;48.698;9.310;2023-09-30T01:40:38;9;;;4.3;;
24867;SDS011;12941;48.698;9.310;2023-09-30T01:41:38;9;;;4.3;;
24867;SDS011;12941;48.698;9.310;2023-09-30T01:42:43;9;;;4.3;;
24867;SDS011;12941;48.698;9.310;2023-09-30T01:43:48;6.1;;;3.5;;
24867;SDS011;12941;48.698;9.310;2023-09-30T01:44:48;6.1;;;3.5;;
24867;SDS011;12941;48.698;9.310;2023-09-30T01:45:53;6.1;;;3.5;;
24867;SDS011;12941;48.698;9.310;2023-09-30T01:46:58;6.1;;;3.5;;
24867;SDS011;12941;48.698;9.310;2023-09-30T01:48:03;6.1;;;3.5;;
24867;SDS011;12941;48.698;9.310;2023-09-30T01:49:08;7.6;;;3.8;;
24867;SDS011;12941;48.698;9.310;2023-09-30T01:50:08;7.6;;;3.8;;
24867;SDS011;12941;48.698;9.310;2023-09-30T01:51:13;7.6;;;3.8;;
24867;SDS011;12941;48.698;9.310;2023-09-30T01:52:13;7.6;;;3.8;;
24867;SDS011;12941;48.698;9.310;2023-09-30T01:53:18;7.8;;;4.1;;
24867;SDS011;12941;48.698;9.310;2023-09-30T01:54:18;7.6;;;4;;
24867;SDS011;12941;48.698;9.310;2023-09-30T01:55:18;7.6;;;4;;
24867;SDS011;12941;48.698;9.310;2023-09-30T01:56:23;7.6;;;4;;
24867;SDS011;12941;48.698;9.310;2023-09-30T01:57:23;7.6;;;4;;
24867;SDS011;12941;48.698;9.310;2023-09-30T01:58:28;7.7;;;4.1;;
24867;SDS011;12941;48.698;9.310;2023-09-30T01:59:28;7.7;;;4.1;;
24867;SDS011;12941;48.698;9.310;2023-09-30T02:00:33;7.7;;;4.1;;
24867;SDS011;12941;48.698;9.310;2023-09-30T02:01:33;7.7;;;4.1;;
24867;SDS011;12941;48.698;9.310;2023-09-30T02:02:38;7.7;;;4.1;;
24867;SDS011;12941;48.698;9.310;2023-09-30T02:03:43;8.6;;;4.3;;
24867;SDS011;12941;48.698;9.310;2023-09-30T02:04:43;8.6;;;4.3;;
24867;SDS011;12941;48.698;9.310;2023-09-30T02:05:48;8.6;;;4.3;;
24867;SDS011;12941;48.698;9.310;2023-09-30T02:06:48;8.6;;;4.3;;
24867;SDS011;12941;48.698;9.310;2023-09-30T02:07:48;8.6;;;4.3;;
24867;SDS011;12941;48.698;9.310;2023-09-30T02:08:53;7.7;;;4;;
24867;SDS011;12941;48.698;9.310;2023-09-30T02:09:58;7.7;;;4;;
24867;SDS011;12941;48.698;9.310;2023-09-30T02:10:58;7.7;;;4;;
24867;SDS011;12941;48.698;9.310;2023-09-30T02:12:03;7.7;;;4;;
24867;SDS011;12941;48.698;9.310;2023-09-30T02:13:03;7.7;;;4;;
24867;SDS011;12941;48.698;9.310;2023-09-30T02:14:03;6.7;;;3.8;;
24867;SDS011;12941;48.698;9.310;2023-09-30T02:15:03;6.7;;;3.8;;
24867;SDS011;12941;48.698;9.310;2023-09-30T02:16:03;6.7;;;3.8;;
24867;SDS011;12941;48.698;9.310;2023-09-30T02:17:03;6.7;;;3.8;;
24867;SDS011;12941;48.698;9.310;2023-09-30T02:18:03;6.7;;;3.8;;
24867;SDS011;12941;48.698;9.310;2023-09-30T02:19:08;7.3;;;3.8;;
24867;SDS011;12941;48.698;9.310;2023-09-30T02:20:08;7.3;;;3.8;;
24867;SDS011;12941;48.698;9.310;2023-09-30T02:21:08;7.3;;;3.8;;
24867;SDS011;12941;48.698;9.310;2023-09-30T02:22:13;7.3;;;3.8;;
24867;SDS011;12941;48.698;9.310;2023-09-30T02:23:19;7.6;;;4.1;;
24867;SDS011;12941;48.698;9.310;2023-09-30T02:24:23;7.6;;;4;;
24867;SDS011;12941;48.698;9.310;2023-09-30T02:25:23;7.6;;;4;;
24867;SDS011;12941;48.698;9.310;2023-09-30T02:26:23;7.6;;;4;;
24867;SDS011;12941;48.698;9.310;2023-09-30T02:27:24;7.6;;;4;;
24867;SDS011;12941;48.698;9.310;2023-09-30T02:28:28;7;;;3.6;;
24867;SDS011;12941;48.698;9.310;2023-09-30T02:29:28;7;;;3.6;;
24867;SDS011;12941;48.698;9.310;2023-09-30T02:30:33;7;;;3.6;;
24867;SDS011;12941;48.698;9.310;2023-09-30T02:31:38;7;;;3.6;;
24867;SDS011;12941;48.698;9.310;2023-09-30T02:32:43;7;;;3.6;;
24867;SDS011;12941;48.698;9.310;2023-09-30T02:33:49;9.6;;;4;;
24867;SDS011;12941;48.698;9.310;2023-09-30T02:34:53;9.6;;;4;;
24867;SDS011;12941;48.698;9.310;2023-09-30T02:35:59;9.6;;;4;;
24867;SDS011;12941;48.698;9.310;2023-09-30T02:37:03;9.6;;;4;;
24867;SDS011;12941;48.698;9.310;2023-09-30T02:38:04;9.6;;;4;;
24867;SDS011;12941;48.698;9.310;2023-09-30T02:39:09;8.2;;;4.1;;
24867;SDS011;12941;48.698;9.310;2023-09-30T02:40:14;8.2;;;4.1;;
24867;SDS011;12941;48.698;9.310;2023-09-30T02:41:15;8.2;;;4.1;;
24867;SDS011;12941;48.698;9.310;2023-09-30T02:42:14;8.2;;;4.1;;
24867;SDS011;12941;48.698;9.310;2023-09-30T02:43:14;8.2;;;4.1;;
24867;SDS011;12941;48.698;9.310;2023-09-30T02:44:14;8;;;4.5;;
24867;SDS011;12941;48.698;9.310;2023-09-30T02:45:19;8;;;4.5;;
24867;SDS011;12941;48.698;9.310;2023-09-30T02:46:24;8;;;4.5;;
24867;SDS011;12941;48.698;9.310;2023-09-30T02:47:29;8;;;4.5;;
24867;SDS011;12941;48.698;9.310;2023-09-30T02:48:29;9;;;4.4;;
24867;SDS011;12941;48.698;9.310;2023-09-30T02:49:34;9;;;4.4;;
24867;SDS011;12941;48.698;9.310;2023-09-30T02:50:34;9;;;4.4;;
24867;SDS011;12941;48.698;9.310;2023-09-30T02:51:39;9;;;4.4;;
24867;SDS011;12941;48.698;9.310;2023-09-30T02:52:44;9;;;4.4;;
24867;SDS011;12941;48.698;9.310;2023-09-30T02:53:44;9.1;;;4.7;;
24867;SDS011;12941;48.698;9.310;2023-09-30T02:54:49;9.1;;;4.7;;
24867;SDS011;12941;48.698;9.310;2023-09-30T02:55:49;9.1;;;4.7;;
24867;SDS011;12941;48.698;9.310;2023-09-30T02:56:49;9.1;;;4.7;;
24867;SDS011;12941;48.698;9.310;2023-09-30T02:57:49;9.1;;;4.7;;
24867;SDS011;12941;48.698;9.310;2023-09-30T02:58:54;9.8;;;4.7;;
24867;SDS011;12941;48.698;9.310;2023-09-30T02:59:59;9.8;;;4.7;;
24867;SDS011;12941;48.698;9.310;2023-09-30T03:00:59;9.8;;;4.7;;
24867;SDS011;12941;48.698;9.310;2023-09-30T03:02:04;9.8;;;4.7;;
24867;SDS011;12941;48.698;9.310;2023-09-30T03:03:09;9.8;;;4.7;;
24867;SDS011;12941;48.698;9.310;2023-09-30T03:04:09;7.6;;;3.9;;
24867;SDS011;12941;48.698;9.310;2023-09-30T03:05:09;7.6;;;3.9;;
24867;SDS011;12941;48.698;9.310;2023-09-30T03:06:14;7.6;;;3.9;;
24867;SDS011;12941;48.698;9.310;2023-09-30T03:07:14;7.6;;;3.9;;
24867;SDS011;12941;48.698;9.310;2023-09-30T03:08:19;8.4;;;4;;
24867;SDS011;12941;48.698;9.310;2023-09-30T03:09:24;8.4;;;4;;
24867;SDS011;12941;48.698;9.310;2023-09-30T03:10:24;8.4;;;4;;
24867;SDS011;12941;48.698;9.310;2023-09-30T03:11:29;8.4;;;4;;
24867;SDS011;12941;48.698;9.310;2023-09-30T03:12:34;8.4;;;4;;
24867;SDS011;12941;48.698;9.310;2023-09-30T03:13:34;8.8;;;4.1;;
24867;SDS011;12941;48.698;9.310;2023-09-30T03:14:39;8.8;;;4.1;;
24867;SDS011;12941;48.698;9.310;2023-09-30T03:15:39;8.8;;;4.1;;
24867;SDS011;12941;48.698;9.310;2023-09-30T03:16:39;8.8;;;4.1;;
24867;SDS011;12941;48.698;9.310;2023-09-30T03:17:44;8.8;;;4.1;;
24867;SDS011;12941;48.698;9.310;2023-09-30T03:18:49;6.7;;;3.6;;
24867;SDS011;12941;48.698;9.310;2023-09-30T03:19:49;6.7;;;3.6;;
24867;SDS011;12941;48.698;9.310;2023-09-30T03:20:58;6.7;;;3.6;;
24867;SDS011;12941;48.698;9.310;2023-09-30T03:21:54;6.7;;;3.6;;
24867;SDS011;12941;48.698;9.310;2023-09-30T03:22:54;6.7;;;3.6;;
24867;SDS011;12941;48.698;9.310;2023-09-30T03:23:59;8;;;4;;
24867;SDS011;12941;48.698;9.310;2023-09-30T03:24:59;8;;;4;;
24867;SDS011;12941;48.698;9.310;2023-09-30T03:26:04;8;;;4;;
24867;SDS011;12941;48.698;9.310;2023-09-30T03:27:04;8;;;4;;
24867;SDS011;12941;48.698;9.310;2023-09-30T03:28:09;8;;;4;;
24867;SDS011;12941;48.698;9.310;2023-09-30T03:29:09;7.5;;;3.7;;
24867;SDS011;12941;48.698;9.310;2023-09-30T03:30:15;7.5;;;3.7;;
24867;SDS011;12941;48.698;9.310;2023-09-30T03:31:19;7.5;;;3.7;;
24867;SDS011;12941;48.698;9.310;2023-09-30T03:32:19;7.5;;;3.7;;
24867;SDS011;12941;48.698;9.310;2023-09-30T03:33:22;6.7;;;3.4;;
24867;SDS011;12941;48.698;9.310;2023-09-30T03:34:24;6.7;;;3.4;;
24867;SDS011;12941;48.698;9.310;2023-09-30T03:35:24;6.7;;;3.4;;
24867;SDS011;12941;48.698;9.310;2023-09-30T03:36:24;6.7;;;3.4;;
24867;SDS011;12941;48.698;9.310;2023-09-30T03:37:24;6.7;;;3.4;;
24867;SDS011;12941;48.698;9.310;2023-09-30T03:38:29;6.3;;;3.3;;
24867;SDS011;12941;48.698;9.310;2023-09-30T03:39:29;6.3;;;3.3;;
24867;SDS011;12941;48.698;9.310;2023-09-30T03:40:35;6.3;;;3.3;;
24867;SDS011;12941;48.698;9.310;2023-09-30T03:41:35;6.3;;;3.3;;
24867;SDS011;12941;48.698;9.310;2023-09-30T03:42:35;6.3;;;3.3;;
24867;SDS011;12941;48.698;9.310;2023-09-30T03:43:40;7;;;3.4;;
24867;SDS011;12941;48.698;9.310;2023-09-30T03:44:45;7;;;3.4;;
24867;SDS011;12941;48.698;9.310;2023-09-30T03:45:50;7;;;3.4;;
24867;SDS011;12941;48.698;9.310;2023-09-30T03:46:55;7;;;3.4;;
24867;SDS011;12941;48.698;9.310;2023-09-30T03:47:55;7;;;3.4;;
24867;SDS011;12941;48.698;9.310;2023-09-30T03:49:00;5.9;;;3.2;;
24867;SDS011;12941;48.698;9.310;2023-09-30T03:50:05;5.9;;;3.2;;
24867;SDS011;12941;48.698;9.310;2023-09-30T03:51:08;5.9;;;3.2;;
24867;SDS011;12941;48.698;9.310;2023-09-30T03:52:05;5.9;;;3.2;;
24867;SDS011;12941;48.698;9.310;2023-09-30T03:53:10;5.9;;;3.2;;
24867;SDS011;12941;48.698;9.310;2023-09-30T03:54:15;6.4;;;3;;
24867;SDS011;12941;48.698;9.310;2023-09-30T03:55:15;6.4;;;3;;
24867;SDS011;12941;48.698;9.310;2023-09-30T03:56:15;6.4;;;3;;
24867;SDS011;12941;48.698;9.310;2023-09-30T03:57:20;6.4;;;3;;
24867;SDS011;12941;48.698;9.310;2023-09-30T03:58:20;6.1;;;3.1;;
24867;SDS011;12941;48.698;9.310;2023-09-30T03:59:25;6.1;;;3.1;;
24867;SDS011;12941;48.698;9.310;2023-09-30T04:00:25;6.1;;;3.1;;
24867;SDS011;12941;48.698;9.310;2023-09-30T04:01:30;6.1;;;3.1;;
24867;SDS011;12941;48.698;9.310;2023-09-30T04:02:30;6.1;;;3.1;;
24867;SDS011;12941;48.698;9.310;2023-09-30T04:03:30;7.8;;;3.6;;
24867;SDS011;12941;48.698;9.310;2023-09-30T04:04:35;7.8;;;3.6;;
24867;SDS011;12941;48.698;9.310;2023-09-30T04:05:40;7.8;;;3.6;;
24867;SDS011;12941;48.698;9.310;2023-09-30T04:06:45;7.8;;;3.6;;
24867;SDS011;12941;48.698;9.310;2023-09-30T04:07:45;7.8;;;3.6;;
24867;SDS011;12941;48.698;9.310;2023-09-30T04:08:50;7.2;;;3.7;;
24867;SDS011;12941;48.698;9.310;2023-09-30T04:09:50;7.2;;;3.7;;
24867;SDS011;12941;48.698;9.310;2023-09-30T04:10:55;7.2;;;3.7;;
24867;SDS011;12941;48.698;9.310;2023-09-30T04:11:55;7.2;;;3.7;;
24867;SDS011;12941;48.698;9.310;2023-09-30T04:13:00;7.2;;;3.7;;
24867;SDS011;12941;48.698;9.310;2023-09-30T04:14:06;8.3;;;3.6;;
24867;SDS011;12941;48.698;9.310;2023-09-30T04:15:10;8.3;;;3.6;;
24867;SDS011;12941;48.698;9.310;2023-09-30T04:16:10;8.3;;;3.6;;
24867;SDS011;12941;48.698;9.310;2023-09-30T04:17:10;8.3;;;3.6;;
24867;SDS011;12941;48.698;9.310;2023-09-30T04:18:15;8.3;;;3.6;;
24867;SDS011;12941;48.698;9.310;2023-09-30T04:19:20;6.9;;;3.6;;
24867;SDS011;12941;48.698;9.310;2023-09-30T04:20:20;6.9;;;3.6;;
24867;SDS011;12941;48.698;9.310;2023-09-30T04:21:25;6.9;;;3.6;;
24867;SDS011;12941;48.698;9.310;2023-09-30T04:22:25;6.9;;;3.6;;
24867;SDS011;12941;48.698;9.310;2023-09-30T04:23:30;7.2;;;3.9;;
24867;SDS011;12941;48.698;9.310;2023-09-30T04:24:35;7.2;;;3.9;;
24867;SDS011;12941;48.698;9.310;2023-09-30T04:25:35;7.2;;;3.9;;
24867;SDS011;12941;48.698;9.310;2023-09-30T04:26:40;7.2;;;3.9;;
24867;SDS011;12941;48.698;9.310;2023-09-30T04:27:40;7.2;;;3.9;;
24867;SDS011;12941;48.698;9.310;2023-09-30T04:28:45;6.4;;;3.8;;
24867;SDS011;12941;48.698;9.310;2023-09-30T04:29:45;6.4;;;3.8;;
24867;SDS011;12941;48.698;9.310;2023-09-30T04:30:46;6.4;;;3.8;;
24867;SDS011;12941;48.698;9.310;2023-09-30T04:31:50;6.4;;;3.8;;
24867;SDS011;12941;48.698;9.310;2023-09-30T04:32:55;6.4;;;3.8;;
24867;SDS011;12941;48.698;9.310;2023-09-30T04:33:55;6;;;3.2;;
24867;SDS011;12941;48.698;9.310;2023-09-30T04:35:00;6;;;3.2;;
24867;SDS011;12941;48.698;9.310;2023-09-30T04:36:05;6;;;3.2;;
24867;SDS011;12941;48.698;9.310;2023-09-30T04:37:10;6;;;3.2;;
24867;SDS011;12941;48.698;9.310;2023-09-30T04:38:10;6;;;3.2;;
24867;SDS011;12941;48.698;9.310;2023-09-30T04:39:15;5.3;;;3.2;;
24867;SDS011;12941;48.698;9.310;2023-09-30T04:40:15;5.3;;;3.2;;
24867;SDS011;12941;48.698;9.310;2023-09-30T04:41:20;5.3;;;3.2;;
24867;SDS011;12941;48.698;9.310;2023-09-30T04:42:20;5.3;;;3.2;;
24867;SDS011;12941;48.698;9.310;2023-09-30T04:43:20;5.7;;;3.2;;
24867;SDS011;12941;48.698;9.310;2023-09-30T04:44:25;5.7;;;3.2;;
24867;SDS011;12941;48.698;9.310;2023-09-30T04:45:25;5.7;;;3.2;;
24867;SDS011;12941;48.698;9.310;2023-09-30T04:46:30;5.7;;;3.2;;
24867;SDS011;12941;48.698;9.310;2023-09-30T04:47:30;5.7;;;3.2;;
24867;SDS011;12941;48.698;9.310;2023-09-30T04:48:35;6.7;;;3.6;;
24867;SDS011;12941;48.698;9.310;2023-09-30T04:49:35;6.7;;;3.6;;
24867;SDS011;12941;48.698;9.310;2023-09-30T04:50:35;6.7;;;3.6;;
24867;SDS011;12941;48.698;9.310;2023-09-30T04:51:40;6.7;;;3.6;;
24867;SDS011;12941;48.698;9.310;2023-09-30T04:52:40;6.7;;;3.6;;
24867;SDS011;12941;48.698;9.310;2023-09-30T04:53:45;7.3;;;3.6;;
24867;SDS011;12941;48.698;9.310;2023-09-30T04:54:45;7.3;;;3.6;;
24867;SDS011;12941;48.698;9.310;2023-09-30T04:55:50;7.3;;;3.6;;
24867;SDS011;12941;48.698;9.310;2023-09-30T04:56:50;7.3;;;3.6;;
24867;SDS011;12941;48.698;9.310;2023-09-30T04:57:55;7.3;;;3.6;;
24867;SDS011;12941;48.698;9.310;2023-09-30T04:58:55;6.3;;;3.3;;
24867;SDS011;12941;48.698;9.310;2023-09-30T04:59:55;6.3;;;3.3;;
24867;SDS011;12941;48.698;9.310;2023-09-30T05:00:55;6.3;;;3.3;;
24867;SDS011;12941;48.698;9.310;2023-09-30T05:02:00;6.3;;;3.3;;
24867;SDS011;12941;48.698;9.310;2023-09-30T05:03:05;6.3;;;3.3;;
24867;SDS011;12941;48.698;9.310;2023-09-30T05:04:05;6.2;;;3.4;;
24867;SDS011;12941;48.698;9.310;2023-09-30T05:05:10;6.2;;;3.4;;
24867;SDS011;12941;48.698;9.310;2023-09-30T05:06:15;6.2;;;3.4;;
24867;SDS011;12941;48.698;9.310;2023-09-30T05:07:15;6.2;;;3.4;;
24867;SDS011;12941;48.698;9.310;2023-09-30T05:08:15;6.2;;;3.4;;
24867;SDS011;12941;48.698;9.310;2023-09-30T05:09:20;7.5;;;3.9;;
24867;SDS011;12941;48.698;9.310;2023-09-30T05:10:20;7.5;;;3.9;;
24867;SDS011;12941;48.698;9.310;2023-09-30T05:11:25;7.5;;;3.9;;
24867;SDS011;12941;48.698;9.310;2023-09-30T05:12:30;7.5;;;3.9;;
24867;SDS011;12941;48.698;9.310;2023-09-30T05:13:30;5.7;;;3.4;;
24867;SDS011;12941;48.698;9.310;2023-09-30T05:14:35;5.7;;;3.4;;
24867;SDS011;12941;48.698;9.310;2023-09-30T05:15:35;5.7;;;3.4;;
24867;SDS011;12941;48.698;9.310;2023-09-30T05:16:35;5.7;;;3.4;;
24867;SDS011;12941;48.698;9.310;2023-09-30T05:17:40;5.7;;;3.4;;
24867;SDS011;12941;48.698;9.310;2023-09-30T05:18:41;5.7;;;3.4;;
24867;SDS011;12941;48.698;9.310;2023-09-30T05:19:40;5.7;;;3.4;;
24867;SDS011;12941;48.698;9.310;2023-09-30T05:20:45;5.7;;;3.4;;
24867;SDS011;12941;48.698;9.310;2023-09-30T05:21:45;5.7;;;3.4;;
24867;SDS011;12941;48.698;9.310;2023-09-30T05:22:50;5.7;;;3.4;;
24867;SDS011;12941;48.698;9.310;2023-09-30T05:23:50;6.4;;;3.2;;
24867;SDS011;12941;48.698;9.310;2023-09-30T05:24:50;6.4;;;3.2;;
24867;SDS011;12941;48.698;9.310;2023-09-30T05:25:55;6.4;;;3.2;;
24867;SDS011;12941;48.698;9.310;2023-09-30T05:26:55;6.4;;;3.2;;
24867;SDS011;12941;48.698;9.310;2023-09-30T05:28:02;6.4;;;3.2;;
24867;SDS011;12941;48.698;9.310;2023-09-30T05:29:00;5.9;;;3.3;;
24867;SDS011;12941;48.698;9.310;2023-09-30T05:30:06;5.9;;;3.3;;
24867;SDS011;12941;48.698;9.310;2023-09-30T05:31:05;5.9;;;3.3;;
24867;SDS011;12941;48.698;9.310;2023-09-30T05:32:10;5.9;;;3.3;;
24867;SDS011;12941;48.698;9.310;2023-09-30T05:33:15;5.9;;;3.3;;
24867;SDS011;12941;48.698;9.310;2023-09-30T05:34:15;5.8;;;3.5;;
24867;SDS011;12941;48.698;9.310;2023-09-30T05:35:20;5.8;;;3.5;;
24867;SDS011;12941;48.698;9.310;2023-09-30T05:36:25;5.8;;;3.5;;
24867;SDS011;12941;48.698;9.310;2023-09-30T05:37:25;5.8;;;3.5;;
24867;SDS011;12941;48.698;9.310;2023-09-30T05:38:30;7;;;3.5;;
24867;SDS011;12941;48.698;9.310;2023-09-30T05:39:35;7;;;3.5;;
24867;SDS011;12941;48.698;9.310;2023-09-30T05:40:36;7;;;3.5;;
24867;SDS011;12941;48.698;9.310;2023-09-30T05:41:40;7;;;3.5;;
24867;SDS011;12941;48.698;9.310;2023-09-30T05:42:41;7;;;3.5;;
24867;SDS011;12941;48.698;9.310;2023-09-30T05:43:46;6.7;;;3.3;;
24867;SDS011;12941;48.698;9.310;2023-09-30T05:44:50;6.7;;;3.3;;
24867;SDS011;12941;48.698;9.310;2023-09-30T05:45:50;6.7;;;3.3;;
24867;SDS011;12941;48.698;9.310;2023-09-30T05:46:56;6.7;;;3.3;;
24867;SDS011;12941;48.698;9.310;2023-09-30T05:48:01;6.7;;;3.3;;
24867;SDS011;12941;48.698;9.310;2023-09-30T05:49:00;4.4;;;3.1;;
24867;SDS011;12941;48.698;9.310;2023-09-30T05:50:01;4.4;;;3.1;;
24867;SDS011;12941;48.698;9.310;2023-09-30T05:51:06;4.4;;;3.1;;
24867;SDS011;12941;48.698;9.310;2023-09-30T05:52:11;4.4;;;3.1;;
24867;SDS011;12941;48.698;9.310;2023-09-30T05:53:15;4.4;;;3.1;;
24867;SDS011;12941;48.698;9.310;2023-09-30T05:54:16;5.8;;;3.3;;
24867;SDS011;12941;48.698;9.310;2023-09-30T05:55:21;5.8;;;3.3;;
24867;SDS011;12941;48.698;9.310;2023-09-30T05:56:25;5.8;;;3.3;;
24867;SDS011;12941;48.698;9.310;2023-09-30T05:57:26;5.8;;;3.3;;
24867;SDS011;12941;48.698;9.310;2023-09-30T05:58:31;10.5;;;6.6;;
24867;SDS011;12941;48.698;9.310;2023-09-30T05:59:36;10.5;;;6.6;;
24867;SDS011;12941;48.698;9.310;2023-09-30T06:00:36;10.5;;;6.6;;
24867;SDS011;12941;48.698;9.310;2023-09-30T06:01:40;10.5;;;6.6;;
24867;SDS011;12941;48.698;9.310;2023-09-30T06:02:41;10.5;;;6.6;;
24867;SDS011;12941;48.698;9.310;2023-09-30T06:03:46;6.9;;;4;;
24867;SDS011;12941;48.698;9.310;2023-09-30T06:04:46;6.9;;;4;;
24867;SDS011;12941;48.698;9.310;2023-09-30T06:05:51;6.9;;;4;;
24867;SDS011;12941;48.698;9.310;2023-09-30T06:06:51;6.9;;;4;;
24867;SDS011;12941;48.698;9.310;2023-09-30T06:07:56;6.9;;;4;;
24867;SDS011;12941;48.698;9.310;2023-09-30T06:08:56;5.4;;;3.2;;
24867;SDS011;12941;48.698;9.310;2023-09-30T06:10:01;5.4;;;3.2;;
24867;SDS011;12941;48.698;9.310;2023-09-30T06:11:01;5.4;;;3.2;;
24867;SDS011;12941;48.698;9.310;2023-09-30T06:12:01;5.4;;;3.2;;
24867;SDS011;12941;48.698;9.310;2023-09-30T06:13:06;5.4;;;3.2;;
24867;SDS011;12941;48.698;9.310;2023-09-30T06:14:11;6;;;3.3;;
24867;SDS011;12941;48.698;9.310;2023-09-30T06:15:16;6;;;3.3;;
24867;SDS011;12941;48.698;9.310;2023-09-30T06:16:16;6;;;3.3;;
24867;SDS011;12941;48.698;9.310;2023-09-30T06:17:21;6;;;3.3;;
24867;SDS011;12941;48.698;9.310;2023-09-30T06:18:22;7.1;;;3.1;;
24867;SDS011;12941;48.698;9.310;2023-09-30T06:19:26;7.1;;;3.1;;
24867;SDS011;12941;48.698;9.310;2023-09-30T06:20:26;7.1;;;3.1;;
24867;SDS011;12941;48.698;9.310;2023-09-30T06:21:31;7.1;;;3.1;;
24867;SDS011;12941;48.698;9.310;2023-09-30T06:22:36;7.1;;;3.1;;
24867;SDS011;12941;48.698;9.310;2023-09-30T06:23:36;6;;;3.6;;
24867;SDS011;12941;48.698;9.310;2023-09-30T06:24:41;6;;;3.6;;
24867;SDS011;12941;48.698;9.310;2023-09-30T06:25:41;6;;;3.6;;
24867;SDS011;12941;48.698;9.310;2023-09-30T06:26:46;6;;;3.6;;
24867;SDS011;12941;48.698;9.310;2023-09-30T06:27:51;6;;;3.6;;
24867;SDS011;12941;48.698;9.310;2023-09-30T06:28:51;7.6;;;3.6;;
24867;SDS011;12941;48.698;9.310;2023-09-30T06:29:51;7.6;;;3.6;;
24867;SDS011;12941;48.698;9.310;2023-09-30T06:30:51;7.6;;;3.6;;
24867;SDS011;12941;48.698;9.310;2023-09-30T06:31:56;7.6;;;3.6;;